Time;durP1;ratioP1;P1;durP2;ratioP2;P2;SDS_P1;SDS_P2;PMS_P1;PMS_P2;Temp;Humidity;BMP_temperature;BMP_pressure;BME280_temperature;BME280_humidity;BME280_pressure;Samples;Min_cycle;Max_cycle;Signal;HPM_P1;HPM_P2
2022/10/19 00:01:03;;;;;;;9.03;6.20;;;14.70;99.90;;;;;;5060364;28;20976;-81
2022/10/19 00:03:32;;;;;;;5.57;4.67;;;14.70;99.90;;;;;;5058300;28;20467;-78
2022/10/19 00:06:10;;;;;;;6.67;4.47;;;14.70;99.90;;;;;;5054293;28;20467;-80
2022/10/19 00:08:37;;;;;;;11.80;7.80;;;14.70;99.90;;;;;;5060259;28;20547;-81
2022/10/19 00:11:05;;;;;;;5.20;4.30;;;14.70;99.90;;;;;;5059353;28;20968;-81
2022/10/19 00:13:32;;;;;;;5.93;4.43;;;14.70;99.90;;;;;;5058986;28;20467;-78
2022/10/19 00:16:00;;;;;;;8.10;3.77;;;14.60;99.90;;;;;;5059761;28;20451;-81
2022/10/19 00:18:27;;;;;;;7.40;4.43;;;14.70;99.90;;;;;;5062567;28;20477;-81
2022/10/19 00:21:04;;;;;;;8.37;3.90;;;14.70;99.90;;;;;;5056169;28;20473;-81
2022/10/19 00:23:32;;;;;;;4.53;3.07;;;14.70;99.90;;;;;;5056363;28;20815;-78
2022/10/19 00:26:00;;;;;;;7.33;3.03;;;14.70;99.90;;;;;;5055475;28;20471;-77
2022/10/19 00:28:28;;;;;;;7.67;4.20;;;14.60;99.90;;;;;;5056655;28;20474;-77
2022/10/19 00:30:55;;;;;;;3.90;2.93;;;14.60;99.90;;;;;;5055717;28;20561;-78
2022/10/19 00:33:22;;;;;;;5.10;2.80;;;14.70;99.90;;;;;;5045469;28;20507;-78
2022/10/19 00:35:51;;;;;;;4.93;2.73;;;14.70;99.90;;;;;;5058389;28;20553;-77
2022/10/19 00:38:21;;;;;;;5.60;3.63;;;14.70;99.90;;;;;;5056097;28;20486;-81
2022/10/19 00:40:49;;;;;;;4.57;3.83;;;14.70;99.90;;;;;;5055317;28;20479;-81
2022/10/19 00:43:17;;;;;;;4.67;3.90;;;14.70;99.90;;;;;;5054777;28;20471;-80
2022/10/19 00:45:44;;;;;;;9.47;6.37;;;14.70;99.90;;;;;;5054295;28;20468;-81
2022/10/19 00:48:17;;;;;;;6.20;4.00;;;14.70;99.90;;;;;;5054369;28;20523;-81
2022/10/19 00:50:45;;;;;;;8.37;6.63;;;14.70;99.90;;;;;;5055263;28;20546;-77
2022/10/19 00:53:12;;;;;;;10.30;7.17;;;14.70;99.90;;;;;;5055436;28;20455;-77
2022/10/19 00:55:42;;;;;;;7.10;4.20;;;14.70;99.90;;;;;;5054944;28;20489;-77
2022/10/19 00:58:09;;;;;;;5.90;4.10;;;14.70;99.90;;;;;;5052952;28;20601;-80
2022/10/19 01:00:37;;;;;;;4.83;2.70;;;14.70;99.90;;;;;;5052772;28;20517;-81
2022/10/19 01:03:05;;;;;;;8.63;4.43;;;14.70;99.90;;;;;;5053314;28;20467;-77
2022/10/19 01:05:34;;;;;;;4.30;3.27;;;14.70;99.90;;;;;;5054306;28;20551;-80
2022/10/19 01:08:01;;;;;;;7.10;2.90;;;14.70;99.90;;;;;;5053905;28;20505;-80
2022/10/19 01:10:35;;;;;;;4.10;2.67;;;14.70;99.90;;;;;;5054322;28;20497;-77
2022/10/19 01:13:15;;;;;;;8.80;6.80;;;14.70;99.90;;;;;;5044537;28;20536;-77
2022/10/19 01:15:50;;;;;;;5.73;4.03;;;14.70;99.90;;;;;;5055486;28;20528;-78
2022/10/19 01:18:22;;;;;;;5.60;3.17;;;14.70;99.90;;;;;;5044767;28;20772;-78
2022/10/19 01:21:18;;;;;;;3.77;2.90;;;14.70;99.90;;;;;;5055391;28;20490;-78
2022/10/19 01:24:19;;;;;;;4.07;3.13;;;14.70;99.90;;;;;;5055434;28;20794;-78
2022/10/19 01:27:17;;;;;;;4.07;2.67;;;14.70;99.90;;;;;;5054224;28;20467;-80
2022/10/19 01:30:07;;;;;;;2.90;2.70;;;14.70;99.90;;;;;;5054901;28;20542;-80
2022/10/19 01:32:47;;;;;;;3.70;2.40;;;14.70;99.90;;;;;;5055333;28;20479;-82
2022/10/19 01:35:24;;;;;;;3.90;2.67;;;14.70;99.90;;;;;;5055600;28;20580;-78
2022/10/19 01:38:04;;;;;;;4.43;3.23;;;14.70;99.90;;;;;;5054874;28;20538;-77
2022/10/19 01:40:38;;;;;;;6.30;4.70;;;14.70;99.90;;;;;;5054594;28;20574;-77
2022/10/19 01:43:12;;;;;;;8.03;5.23;;;14.70;99.90;;;;;;5055337;28;20501;-80
2022/10/19 01:45:47;;;;;;;6.23;3.03;;;14.70;99.90;;;;;;5054568;28;20479;-80
2022/10/19 01:48:17;;;;;;;2.03;1.60;;;14.70;99.90;;;;;;5055389;28;20987;-80
2022/10/19 01:50:49;;;;;;;4.10;2.60;;;14.70;99.90;;;;;;5054856;28;20462;-81
2022/10/19 01:53:18;;;;;;;2.10;1.63;;;14.70;99.90;;;;;;5054840;28;20555;-80
2022/10/19 01:55:51;;;;;;;2.60;1.60;;;14.70;99.90;;;;;;5053995;28;20915;-80
2022/10/19 01:58:24;;;;;;;3.83;2.20;;;14.70;99.90;;;;;;5054981;28;20490;-80
2022/10/19 02:00:54;;;;;;;2.33;1.73;;;14.70;99.90;;;;;;5054215;28;20593;-80
2022/10/19 02:03:23;;;;;;;2.53;2.00;;;14.70;99.90;;;;;;5054525;28;20570;-80
2022/10/19 02:05:53;;;;;;;3.30;1.77;;;14.70;99.90;;;;;;5054344;28;20448;-81
2022/10/19 02:08:25;;;;;;;8.20;2.87;;;14.70;99.90;;;;;;5053852;28;20816;-80
2022/10/19 02:10:53;;;;;;;3.00;1.77;;;14.70;99.90;;;;;;5054006;28;20525;-80
2022/10/19 02:13:21;;;;;;;4.00;2.20;;;14.70;99.90;;;;;;5055162;28;20463;-80
2022/10/19 02:15:51;;;;;;;6.60;3.00;;;14.70;99.90;;;;;;5054206;28;20467;-79
2022/10/19 02:18:25;;;;;;;3.97;2.53;;;14.70;99.90;;;;;;5055268;28;20562;-82
2022/10/19 02:20:53;;;;;;;2.83;2.07;;;14.70;99.90;;;;;;5053882;28;20862;-78
2022/10/19 02:23:25;;;;;;;5.93;2.47;;;14.70;99.90;;;;;;5054391;28;20475;-78
2022/10/19 02:25:52;;;;;;;3.67;3.10;;;14.70;99.90;;;;;;5053325;28;20460;-78
2022/10/19 02:28:20;;;;;;;5.97;2.80;;;14.70;99.90;;;;;;5055939;28;20805;-81
2022/10/19 02:30:47;;;;;;;3.53;2.87;;;14.70;99.90;;;;;;5054275;28;20825;-82
2022/10/19 02:33:16;;;;;;;2.87;1.90;;;14.70;99.90;;;;;;5055465;28;20475;-80
2022/10/19 02:35:44;;;;;;;5.83;3.40;;;14.70;99.90;;;;;;5054001;28;20459;-78
2022/10/19 02:38:16;;;;;;;4.87;2.53;;;14.70;99.90;;;;;;5054088;28;20964;-82
2022/10/19 02:40:51;;;;;;;4.50;3.83;;;14.70;99.90;;;;;;5053907;28;20968;-80
2022/10/19 02:43:21;;;;;;;6.50;2.70;;;14.70;99.90;;;;;;5054158;28;20470;-82
2022/10/19 02:45:55;;;;;;;6.03;3.63;;;14.60;99.90;;;;;;5053298;28;20552;-81
2022/10/19 02:48:25;;;;;;;3.80;3.33;;;14.70;99.90;;;;;;5054066;28;20995;-82
2022/10/19 02:50:53;;;;;;;7.70;2.50;;;14.60;99.90;;;;;;5053333;28;20844;-78
2022/10/19 02:53:20;;;;;;;3.07;2.10;;;14.60;99.90;;;;;;5053231;28;20502;-78
2022/10/19 02:55:49;;;;;;;6.47;3.00;;;14.60;99.90;;;;;;5053470;28;20474;-79
2022/10/19 02:58:16;;;;;;;3.53;2.47;;;14.70;99.90;;;;;;5054006;28;20487;-79
2022/10/19 03:00:43;;;;;;;7.30;3.20;;;14.70;99.90;;;;;;5052941;28;20476;-78
2022/10/19 03:03:11;;;;;;;3.47;2.20;;;14.70;99.90;;;;;;5053366;28;20509;-78
2022/10/19 03:05:39;;;;;;;3.17;2.20;;;14.70;99.90;;;;;;5048200;28;20474;-81
2022/10/19 03:08:07;;;;;;;4.73;3.20;;;14.70;99.90;;;;;;5043190;28;20518;-79
2022/10/19 03:10:34;;;;;;;7.40;2.30;;;14.60;99.90;;;;;;5053323;28;20531;-79
2022/10/19 03:13:01;;;;;;;2.10;1.90;;;14.70;99.90;;;;;;5053128;28;20475;-78
2022/10/19 03:15:28;;;;;;;4.90;2.00;;;14.70;99.90;;;;;;5053450;28;20497;-78
2022/10/19 03:17:56;;;;;;;7.33;3.63;;;14.70;99.90;;;;;;5052894;28;20471;-78
2022/10/19 03:20:23;;;;;;;4.03;3.30;;;14.70;99.90;;;;;;5053908;28;20971;-81
2022/10/19 03:22:51;;;;;;;3.17;2.53;;;14.70;99.90;;;;;;5052229;28;20545;-79
2022/10/19 03:25:20;;;;;;;2.50;2.23;;;14.70;99.90;;;;;;5053707;28;21016;-81
2022/10/19 03:27:47;;;;;;;22.27;3.23;;;14.70;99.90;;;;;;5052907;28;20502;-79
2022/10/19 03:30:14;;;;;;;3.90;3.23;;;14.70;99.90;;;;;;5053296;28;20964;-78
2022/10/19 03:32:41;;;;;;;4.97;3.33;;;14.70;99.90;;;;;;5043504;28;20541;-78
2022/10/19 03:35:08;;;;;;;2.63;1.73;;;14.70;99.90;;;;;;5052812;28;20545;-78
2022/10/19 03:37:35;;;;;;;5.53;1.87;;;14.70;99.90;;;;;;5052844;28;20506;-78
2022/10/19 03:40:02;;;;;;;1.73;1.40;;;14.70;99.90;;;;;;5052579;28;20546;-77
2022/10/19 03:42:30;;;;;;;6.87;3.17;;;14.60;99.90;;;;;;5053214;28;20520;-80
2022/10/19 03:44:58;;;;;;;3.40;1.60;;;14.60;99.90;;;;;;5052392;28;20574;-77
2022/10/19 03:47:25;;;;;;;4.30;2.20;;;14.60;99.90;;;;;;5053248;28;20502;-80
2022/10/19 03:49:52;;;;;;;3.63;2.10;;;14.60;99.90;;;;;;5052848;28;20508;-77
2022/10/19 03:52:19;;;;;;;1.93;1.50;;;14.60;99.90;;;;;;5053067;28;20467;-77
2022/10/19 03:54:49;;;;;;;2.40;1.97;;;14.60;99.90;;;;;;5052771;28;20541;-77
2022/10/19 03:57:16;;;;;;;4.73;2.03;;;14.60;99.90;;;;;;5051606;28;20474;-77
2022/10/19 03:59:44;;;;;;;3.47;2.17;;;14.60;99.90;;;;;;5052802;28;20470;-78
2022/10/19 04:02:14;;;;;;;7.97;2.40;;;14.60;99.90;;;;;;5052369;28;20941;-77
2022/10/19 04:04:41;;;;;;;3.80;2.13;;;14.60;99.90;;;;;;5052896;28;20503;-77
2022/10/19 04:07:08;;;;;;;2.57;1.70;;;14.60;99.90;;;;;;5051894;28;20558;-78
2022/10/19 04:09:35;;;;;;;2.40;1.90;;;14.50;99.90;;;;;;5053235;28;20463;-78
2022/10/19 04:12:03;;;;;;;6.30;2.37;;;14.50;99.90;;;;;;5052439;28;20486;-77
2022/10/19 04:14:30;;;;;;;5.63;1.73;;;14.50;99.90;;;;;;5052792;28;20551;-78
2022/10/19 04:16:58;;;;;;;5.73;2.57;;;14.50;99.90;;;;;;5052515;28;20499;-78
2022/10/19 04:19:25;;;;;;;5.60;1.93;;;14.50;99.90;;;;;;5052355;28;20498;-77
2022/10/19 04:21:52;;;;;;;6.93;1.90;;;14.50;99.90;;;;;;5053146;28;20547;-78
2022/10/19 04:24:19;;;;;;;3.87;1.40;;;14.50;99.90;;;;;;5052707;28;20486;-80
2022/10/19 04:26:48;;;;;;;7.43;1.70;;;14.50;99.90;;;;;;5052592;28;20534;-81
2022/10/19 04:29:17;;;;;;;4.70;2.77;;;14.50;99.90;;;;;;5051814;28;20509;-78
2022/10/19 04:31:45;;;;;;;4.10;2.07;;;14.50;99.90;;;;;;5052656;28;20475;-78
2022/10/19 04:34:13;;;;;;;3.57;1.53;;;14.50;99.90;;;;;;5053804;28;20554;-77
2022/10/19 04:36:44;;;;;;;7.43;1.98;;;14.40;99.90;;;;;;5056429;28;20895;-77
2022/10/19 04:39:11;;;;;;;1.40;1.30;;;14.40;99.90;;;;;;5056151;28;20255;-77
2022/10/19 04:41:38;;;;;;;2.70;1.20;;;14.40;99.90;;;;;;5055773;28;20562;-80
2022/10/19 04:44:06;;;;;;;5.23;1.40;;;14.40;99.90;;;;;;5055200;28;20520;-82
2022/10/19 04:46:34;;;;;;;2.73;1.47;;;14.40;99.90;;;;;;5056382;28;20633;-81
2022/10/19 04:49:03;;;;;;;8.83;4.77;;;14.40;99.90;;;;;;5055489;28;20509;-81
2022/10/19 04:51:31;;;;;;;2.97;1.80;;;14.40;99.90;;;;;;5055953;28;20487;-81
2022/10/19 04:53:58;;;;;;;2.63;1.33;;;14.40;99.90;;;;;;5056465;28;20492;-78
2022/10/19 04:56:26;;;;;;;2.83;1.47;;;14.40;99.90;;;;;;5055858;28;20857;-78
2022/10/19 04:58:56;;;;;;;2.80;1.57;;;14.40;99.90;;;;;;5056669;28;20467;-81
2022/10/19 05:01:24;;;;;;;5.70;1.80;;;14.40;99.90;;;;;;5058595;28;20455;-81
2022/10/19 05:03:57;;;;;;;5.80;1.50;;;14.40;99.90;;;;;;5056414;28;20468;-77
2022/10/19 05:06:24;;;;;;;4.40;1.50;;;14.40;99.90;;;;;;5057022;28;20455;-77
2022/10/19 05:08:53;;;;;;;3.73;2.83;;;14.40;99.90;;;;;;5055725;28;20620;-77
2022/10/19 05:11:21;;;;;;;2.00;1.60;;;14.40;99.90;;;;;;5055465;28;20965;-80
2022/10/19 05:13:48;;;;;;;3.10;1.93;;;14.40;99.90;;;;;;5055787;28;20502;-81
2022/10/19 05:16:17;;;;;;;3.33;1.10;;;14.40;99.90;;;;;;5055525;28;20524;-81
2022/10/19 05:18:48;;;;;;;1.47;1.20;;;14.40;99.90;;;;;;5055029;28;20463;-81
2022/10/19 05:21:15;;;;;;;5.40;1.90;;;14.40;99.90;;;;;;5055134;28;20483;-81
2022/10/19 05:23:43;;;;;;;5.88;1.77;;;14.40;99.90;;;;;;5055917;28;20808;-81
2022/10/19 05:26:16;;;;;;;3.80;1.57;;;14.30;99.90;;;;;;5055170;28;20304;-81
2022/10/19 05:28:43;;;;;;;5.20;1.57;;;14.30;99.90;;;;;;5055800;28;20505;-81
2022/10/19 05:31:12;;;;;;;4.53;1.80;;;14.30;99.90;;;;;;5054200;28;20494;-81
2022/10/19 05:33:41;;;;;;;2.97;1.40;;;14.30;99.90;;;;;;5055310;28;20542;-81
2022/10/19 05:36:14;;;;;;;2.43;1.47;;;14.30;99.90;;;;;;5054793;28;20815;-80
2022/10/19 05:38:41;;;;;;;4.73;1.30;;;14.30;99.90;;;;;;5055160;28;20539;-77
2022/10/19 05:41:08;;;;;;;2.50;1.40;;;14.30;99.90;;;;;;5054698;28;20537;-82
2022/10/19 05:43:36;;;;;;;5.43;1.87;;;14.20;99.90;;;;;;5044681;28;20591;-82
2022/10/19 05:46:05;;;;;;;3.93;1.67;;;14.20;99.90;;;;;;5053096;28;20444;-81
2022/10/19 05:48:32;;;;;;;6.60;2.40;;;14.20;99.90;;;;;;5054965;28;20478;-81
2022/10/19 05:51:00;;;;;;;5.80;2.40;;;14.20;99.90;;;;;;5052619;28;20463;-82
2022/10/19 05:53:27;;;;;;;2.00;1.20;;;14.20;99.90;;;;;;5054500;28;20849;-82
2022/10/19 05:55:55;;;;;;;3.23;1.93;;;14.10;99.90;;;;;;5053536;28;20536;-82
2022/10/19 05:58:22;;;;;;;4.53;1.60;;;14.20;99.90;;;;;;5046234;28;20542;-81
2022/10/19 06:00:55;;;;;;;4.53;1.80;;;14.20;99.90;;;;;;5054595;28;20622;-77
2022/10/19 06:03:22;;;;;;;3.57;1.50;;;14.20;99.90;;;;;;5054805;28;20966;-80
2022/10/19 06:05:50;;;;;;;2.60;1.93;;;14.20;99.90;;;;;;5054356;28;20475;-80
2022/10/19 06:08:18;;;;;;;5.10;1.73;;;14.20;99.90;;;;;;5056904;28;23259;-80
2022/10/19 06:10:45;;;;;;;4.60;2.03;;;14.20;99.90;;;;;;5073872;28;20472;-80
2022/10/19 06:13:14;;;;;;;2.30;1.30;;;14.20;99.90;;;;;;5072068;28;20478;-80
2022/10/19 06:15:41;;;;;;;3.70;1.90;;;14.20;99.90;;;;;;5073320;28;20521;-80
2022/10/19 06:18:10;;;;;;;4.73;2.93;;;14.20;99.90;;;;;;5072333;28;20527;-80
2022/10/19 06:20:40;;;;;;;1.90;1.37;;;14.20;99.90;;;;;;5071568;28;20463;-82
2022/10/19 06:23:07;;;;;;;10.43;2.10;;;14.20;99.90;;;;;;5066324;28;20567;-76
2022/10/19 06:25:35;;;;;;;5.60;1.93;;;14.20;99.90;;;;;;5065626;28;20470;-76
2022/10/19 06:28:03;;;;;;;2.67;1.33;;;14.20;99.90;;;;;;5058626;28;20881;-82
2022/10/19 06:30:32;;;;;;;2.57;1.70;;;14.20;99.90;;;;;;5056398;28;20462;-81
2022/10/19 06:33:00;;;;;;;11.60;3.23;;;14.20;99.90;;;;;;5056955;28;21004;-78
2022/10/19 06:35:28;;;;;;;5.83;2.60;;;14.20;99.90;;;;;;5055431;28;20538;-79
2022/10/19 06:37:56;;;;;;;4.07;2.07;;;14.20;99.90;;;;;;5054670;28;20478;-78
2022/10/19 06:40:23;;;;;;;4.00;2.63;;;14.20;99.90;;;;;;5039575;28;20490;-78
2022/10/19 06:42:51;;;;;;;3.27;2.97;;;14.20;99.90;;;;;;5054372;28;20471;-81
2022/10/19 06:45:18;;;;;;;7.67;2.00;;;14.20;99.90;;;;;;5055525;28;20471;-79
2022/10/19 06:48:00;;;;;;;3.50;2.20;;;14.20;99.90;;;;;;5053983;28;20468;-79
2022/10/19 06:50:30;;;;;;;6.03;2.57;;;14.30;99.90;;;;;;5055189;28;20524;-78
2022/10/19 06:52:58;;;;;;;5.63;2.67;;;14.30;99.90;;;;;;5054124;28;20466;-78
2022/10/19 06:55:25;;;;;;;7.23;3.50;;;14.30;99.90;;;;;;5054165;28;20550;-78
2022/10/19 06:57:52;;;;;;;5.73;3.97;;;14.30;99.90;;;;;;5060003;28;20540;-78
2022/10/19 07:00:19;;;;;;;3.73;2.10;;;14.30;99.90;;;;;;5057837;28;20495;-78
2022/10/19 07:02:46;;;;;;;5.40;2.23;;;14.30;99.90;;;;;;5057054;28;20475;-77
2022/10/19 07:05:24;;;;;;;6.87;1.90;;;14.40;99.90;;;;;;5054478;28;20789;-79
2022/10/19 07:07:52;;;;;;;3.97;2.10;;;14.40;99.90;;;;;;5055267;28;20467;-81
2022/10/19 07:10:19;;;;;;;3.87;1.40;;;14.40;99.90;;;;;;5055062;28;20819;-80
2022/10/19 07:12:46;;;;;;;2.03;1.60;;;14.40;99.90;;;;;;5056882;28;20479;-80
2022/10/19 07:15:19;;;;;;;4.53;1.53;;;14.40;99.90;;;;;;5057977;28;20482;-80
2022/10/19 07:17:49;;;;;;;2.33;1.27;;;14.40;99.90;;;;;;5058842;28;20502;-80
2022/10/19 07:20:17;;;;;;;6.10;1.43;;;14.50;99.90;;;;;;5059169;28;20475;-80
2022/10/19 07:22:44;;;;;;;4.93;1.93;;;14.50;99.90;;;;;;5053613;28;20491;-80
2022/10/19 07:25:13;;;;;;;2.23;1.50;;;14.50;99.90;;;;;;5054438;28;20502;-80
2022/10/19 07:27:40;;;;;;;4.03;1.70;;;14.50;99.90;;;;;;5058140;28;20473;-81
2022/10/19 07:30:07;;;;;;;1.73;1.43;;;14.50;99.90;;;;;;5056055;28;20765;-78
2022/10/19 07:32:34;;;;;;;2.27;1.50;;;14.60;99.90;;;;;;5053205;28;20506;-80
2022/10/19 07:35:02;;;;;;;8.07;3.43;;;14.60;99.90;;;;;;5044203;28;20474;-77
2022/10/19 07:37:31;;;;;;;5.40;1.23;;;14.60;99.90;;;;;;5053252;28;20463;-77
2022/10/19 07:39:59;;;;;;;4.43;1.67;;;14.60;99.90;;;;;;5041608;28;20471;-77
2022/10/19 07:42:29;;;;;;;6.67;1.63;;;14.60;99.90;;;;;;5053004;28;20911;-77
2022/10/19 07:44:56;;;;;;;2.93;1.53;;;14.70;99.90;;;;;;5052658;28;20538;-80
2022/10/19 07:47:24;;;;;;;5.97;3.03;;;14.70;99.90;;;;;;5053571;28;20983;-80
2022/10/19 07:49:50;;;;;;;5.30;2.83;;;14.80;99.90;;;;;;5052598;28;20478;-77
2022/10/19 07:52:17;;;;;;;4.57;1.73;;;14.80;99.90;;;;;;5053110;28;20499;-77
2022/10/19 07:54:48;;;;;;;2.33;1.63;;;14.80;99.90;;;;;;5052957;28;20919;-77
2022/10/19 07:57:15;;;;;;;6.93;2.57;;;14.80;99.90;;;;;;5052770;28;20462;-77
2022/10/19 07:59:43;;;;;;;4.63;1.87;;;14.80;99.90;;;;;;5053266;28;20463;-78
2022/10/19 08:02:14;;;;;;;5.23;2.13;;;14.80;99.90;;;;;;5052026;28;20471;-77
2022/10/19 08:07:33;;;;;;;4.77;2.40;;;14.90;99.90;;;;;;5052731;28;20470;-81
2022/10/19 08:10:01;;;;;;;5.03;1.93;;;14.80;99.90;;;;;;5057229;28;20804;-77
2022/10/19 08:12:28;;;;;;;3.20;1.60;;;14.80;99.90;;;;;;5053415;28;20562;-77
2022/10/19 08:14:57;;;;;;;1.40;1.17;;;14.80;99.90;;;;;;5054512;28;20463;-77
2022/10/19 08:17:24;;;;;;;5.00;1.70;;;14.80;99.90;;;;;;5056133;28;25054;-81
2022/10/19 08:20:16;;;;;;;3.57;1.33;;;14.80;99.90;;;;;;5056659;28;20847;-80
2022/10/19 08:22:44;;;;;;;2.80;1.23;;;14.70;99.90;;;;;;5057015;28;20499;-81
2022/10/19 08:25:10;;;;;;;4.00;1.50;;;14.70;99.90;;;;;;5056505;28;20475;-81
2022/10/19 08:27:38;;;;;;;5.20;1.60;;;14.80;99.90;;;;;;5045639;28;20562;-81
2022/10/19 08:30:07;;;;;;;5.10;2.47;;;14.80;99.90;;;;;;5056354;28;20478;-81
2022/10/19 08:32:34;;;;;;;5.80;2.23;;;14.80;99.90;;;;;;5054321;28;20506;-82
2022/10/19 08:35:01;;;;;;;3.97;1.63;;;14.80;99.90;;;;;;5056163;28;20525;-81
2022/10/19 08:37:45;;;;;;;4.90;1.53;;;14.90;99.90;;;;;;5056631;28;20852;-82
2022/10/19 08:40:18;;;;;;;2.50;1.73;;;14.90;99.90;;;;;;5055880;28;20794;-81
2022/10/19 08:42:56;;;;;;;7.53;1.97;;;14.90;99.90;;;;;;5056166;28;20474;-82
2022/10/19 08:45:34;;;;;;;3.33;1.90;;;14.90;99.90;;;;;;5055611;28;20546;-81
2022/10/19 08:48:18;;;;;;;3.27;1.60;;;14.90;99.90;;;;;;5056258;28;20467;-81
2022/10/19 08:51:01;;;;;;;3.03;1.93;;;14.90;99.90;;;;;;5056184;28;20921;-82
2022/10/19 08:53:37;;;;;;;6.60;1.33;;;14.90;99.90;;;;;;5035721;28;21042;-78
2022/10/19 08:56:15;;;;;;;4.60;1.70;;;15.00;99.90;;;;;;5054442;28;20467;-79
2022/10/19 08:58:56;;;;;;;2.80;1.63;;;15.10;99.90;;;;;;5059440;28;20463;-78
2022/10/19 09:01:36;;;;;;;1.93;1.30;;;15.00;99.90;;;;;;5056765;28;20471;-81
2022/10/19 09:04:06;;;;;;;1.93;1.73;;;15.10;99.90;;;;;;5046282;28;21065;-81
2022/10/19 09:06:40;;;;;;;5.53;1.90;;;15.10;99.90;;;;;;5056954;28;20932;-81
2022/10/19 09:09:12;;;;;;;2.77;2.00;;;15.20;99.90;;;;;;5053903;28;20477;-79
2022/10/19 09:11:47;;;;;;;6.83;2.10;;;15.20;99.90;;;;;;5057007;28;20969;-78
2022/10/19 09:14:18;;;;;;;6.07;1.80;;;15.30;99.90;;;;;;5055905;28;20464;-78
2022/10/19 09:16:47;;;;;;;5.93;2.50;;;15.30;99.90;;;;;;5056471;28;20463;-78
2022/10/19 09:19:24;;;;;;;5.20;2.80;;;15.40;99.90;;;;;;5054828;28;21004;-77
2022/10/19 09:21:58;;;;;;;2.90;2.13;;;15.40;99.90;;;;;;5052805;28;20804;-78
2022/10/19 09:24:37;;;;;;;2.10;1.90;;;15.40;99.90;;;;;;5055653;28;20554;-78
2022/10/19 09:27:05;;;;;;;4.73;1.93;;;15.50;99.90;;;;;;5055077;28;20531;-80
2022/10/19 09:29:39;;;;;;;3.63;1.83;;;15.50;99.90;;;;;;5056076;28;20546;-77
2022/10/19 09:32:14;;;;;;;2.97;1.60;;;15.50;99.90;;;;;;5056260;28;20495;-81
2022/10/19 09:34:45;;;;;;;1.90;1.37;;;15.50;99.90;;;;;;5056757;28;20495;-81
2022/10/19 09:37:16;;;;;;;2.40;1.40;;;15.60;99.90;;;;;;5056479;28;20965;-80
2022/10/19 09:39:50;;;;;;;4.30;1.60;;;15.50;99.90;;;;;;5040210;28;20507;-80
2022/10/19 09:42:22;;;;;;;5.60;1.93;;;15.50;99.90;;;;;;5055782;28;20507;-77
2022/10/19 09:44:52;;;;;;;2.07;1.53;;;15.60;99.90;;;;;;5054661;28;20478;-77
2022/10/19 09:47:37;;;;;;;5.70;2.50;;;15.60;99.90;;;;;;5054633;28;20475;-77
2022/10/19 09:50:17;;;;;;;2.57;1.63;;;15.70;99.90;;;;;;5055560;28;20463;-80
2022/10/19 09:52:46;;;;;;;2.50;1.80;;;15.70;99.90;;;;;;5034495;28;20573;-81
2022/10/19 09:55:29;;;;;;;2.53;1.80;;;15.70;99.90;;;;;;5036063;28;20456;-81
2022/10/19 09:58:02;;;;;;;2.30;1.47;;;15.80;99.90;;;;;;5027071;28;20533;-80
2022/10/19 10:00:35;;;;;;;2.80;1.40;;;15.80;99.90;;;;;;5036954;28;20475;-81
2022/10/19 10:03:05;;;;;;;2.30;1.20;;;15.70;99.90;;;;;;5037079;28;20885;-78
2022/10/19 10:05:34;;;;;;;4.47;1.77;;;15.70;99.90;;;;;;5036528;28;20505;-77
2022/10/19 10:08:02;;;;;;;3.77;1.40;;;15.70;99.90;;;;;;5056782;28;20458;-76
2022/10/19 10:10:33;;;;;;;2.60;1.20;;;15.70;99.90;;;;;;5075873;28;20469;-77
2022/10/19 10:13:01;;;;;;;1.80;1.17;;;15.70;99.90;;;;;;5074689;28;20540;-77
2022/10/19 10:15:42;;;;;;;1.30;1.20;;;15.70;99.90;;;;;;5075877;28;20470;-81
2022/10/19 10:18:15;;;;;;;6.00;2.13;;;15.70;99.90;;;;;;5075799;28;20458;-81
2022/10/19 10:21:03;;;;;;;2.20;1.50;;;15.70;99.90;;;;;;5075886;28;20474;-77
2022/10/19 10:23:35;;;;;;;3.50;1.57;;;15.60;99.90;;;;;;5073734;28;20498;-77
2022/10/19 10:26:02;;;;;;;1.33;1.00;;;15.60;99.90;;;;;;5060241;28;20468;-77
2022/10/19 10:28:31;;;;;;;1.20;1.10;;;15.60;99.90;;;;;;5055051;28;20547;-81
2022/10/19 10:31:02;;;;;;;2.27;1.07;;;15.60;99.90;;;;;;5054745;28;20525;-80
2022/10/19 10:33:32;;;;;;;1.33;1.23;;;15.60;99.90;;;;;;5054866;28;20471;-80
2022/10/19 10:36:07;;;;;;;1.90;1.00;;;15.60;99.90;;;;;;5055241;28;20463;-80
2022/10/19 10:38:39;;;;;;;5.60;1.63;;;15.60;99.90;;;;;;5054406;28;20475;-79
2022/10/19 10:41:14;;;;;;;1.70;0.80;;;15.60;99.90;;;;;;5055102;28;20468;-80
2022/10/19 10:43:54;;;;;;;1.30;1.00;;;15.60;99.90;;;;;;5058768;28;20547;-80
2022/10/19 10:46:24;;;;;;;1.20;0.90;;;15.70;99.90;;;;;;5067573;28;20478;-78
2022/10/19 10:48:59;;;;;;;1.13;1.03;;;15.70;99.90;;;;;;5053848;28;20447;-81
2022/10/19 10:51:34;;;;;;;1.50;1.07;;;15.70;99.90;;;;;;5055777;28;20551;-77
2022/10/19 10:54:18;;;;;;;3.10;1.10;;;15.80;99.90;;;;;;5054956;28;20451;-81
2022/10/19 10:56:59;;;;;;;1.93;1.00;;;15.80;99.90;;;;;;5054170;28;20471;-77
2022/10/19 10:59:31;;;;;;;2.03;1.83;;;15.80;99.90;;;;;;5054527;28;20505;-77
2022/10/19 11:02:04;;;;;;;1.17;1.00;;;15.90;99.90;;;;;;5054096;28;20463;-77
2022/10/19 11:04:39;;;;;;;3.23;1.20;;;16.00;99.90;;;;;;5056360;28;20473;-78
2022/10/19 11:07:16;;;;;;;2.80;1.10;;;16.10;99.90;;;;;;5056948;28;20458;-78
2022/10/19 11:09:48;;;;;;;1.90;0.90;;;16.20;99.90;;;;;;5055184;28;20566;-78
2022/10/19 11:12:22;;;;;;;1.53;1.10;;;16.20;99.90;;;;;;5059844;28;20525;-79
2022/10/19 11:14:53;;;;;;;1.20;0.90;;;16.30;99.30;;;;;;5059491;28;20463;-81
2022/10/19 11:17:23;;;;;;;4.37;1.53;;;16.40;99.30;;;;;;5065827;28;20472;-77
2022/10/19 11:19:52;;;;;;;1.20;1.00;;;16.40;99.50;;;;;;5066503;28;20471;-77
2022/10/19 11:22:28;;;;;;;1.00;0.90;;;16.40;99.60;;;;;;5070646;28;20494;-80
2022/10/19 11:25:18;;;;;;;2.90;1.10;;;16.50;99.70;;;;;;5072494;28;20469;-79
2022/10/19 11:27:56;;;;;;;1.00;0.90;;;16.50;99.80;;;;;;5072979;28;20471;-79
2022/10/19 11:30:25;;;;;;;1.70;1.10;;;16.50;99.80;;;;;;5090546;28;20482;-80
2022/10/19 11:32:59;;;;;;;3.47;1.03;;;16.50;99.90;;;;;;5083417;28;20476;-80
2022/10/19 11:35:43;;;;;;;2.43;1.40;;;16.50;99.90;;;;;;5074958;28;20546;-79
2022/10/19 11:38:31;;;;;;;1.60;1.20;;;16.50;99.90;;;;;;5059410;28;20514;-77
2022/10/19 11:41:07;;;;;;;1.70;1.10;;;16.60;99.90;;;;;;5068312;28;20470;-77
2022/10/19 11:43:44;;;;;;;1.57;1.10;;;16.60;99.90;;;;;;5061749;28;20481;-78
2022/10/19 11:46:19;;;;;;;1.90;1.00;;;16.50;99.90;;;;;;5040967;28;20463;-82
2022/10/19 11:49:12;;;;;;;2.07;1.83;;;16.50;99.90;;;;;;5059494;28;20975;-80
2022/10/19 11:51:52;;;;;;;1.57;1.20;;;16.50;99.90;;;;;;5048095;28;20477;-77
2022/10/19 11:54:33;;;;;;;3.63;1.70;;;16.40;99.90;;;;;;5030374;28;20470;-78
2022/10/19 11:57:07;;;;;;;2.67;1.60;;;16.40;99.90;;;;;;5044015;28;20457;-77
2022/10/19 11:59:45;;;;;;;2.33;1.30;;;16.40;99.90;;;;;;5052891;28;20468;-81
2022/10/19 12:02:39;;;;;;;1.60;1.33;;;16.40;99.90;;;;;;5055559;28;20461;-80
2022/10/19 12:05:13;;;;;;;2.10;1.20;;;16.40;99.90;;;;;;5058064;28;20442;-79
2022/10/19 12:08:03;;;;;;;2.03;1.10;;;16.40;99.90;;;;;;5060240;28;20457;-80
2022/10/19 12:10:40;;;;;;;3.40;1.37;;;16.40;99.90;;;;;;5056989;28;21311;-80
2022/10/19 12:13:13;;;;;;;2.97;1.77;;;16.40;99.90;;;;;;5055457;28;20473;-78
2022/10/19 12:15:44;;;;;;;4.20;1.10;;;16.40;99.90;;;;;;5056371;28;20472;-80
2022/10/19 12:18:18;;;;;;;2.10;1.43;;;16.50;99.90;;;;;;5044253;28;20461;-77
2022/10/19 12:20:49;;;;;;;2.97;1.57;;;16.50;99.90;;;;;;5050153;28;20536;-77
2022/10/19 12:23:31;;;;;;;5.07;4.50;;;16.50;99.90;;;;;;5039056;28;20504;-77
2022/10/19 12:26:00;;;;;;;2.17;1.93;;;16.50;99.90;;;;;;5036329;28;21208;-78
2022/10/19 12:28:35;;;;;;;2.70;1.77;;;16.50;99.90;;;;;;5035449;28;20483;-79
2022/10/19 12:31:03;;;;;;;2.73;1.90;;;16.50;99.90;;;;;;5036752;28;20460;-78
2022/10/19 12:33:44;;;;;;;3.23;1.23;;;16.50;99.90;;;;;;5035234;28;20470;-78
2022/10/19 12:39:15;;;;;;;2.73;1.20;;;16.50;99.90;;;;;;5039069;28;20464;-78
2022/10/19 12:41:51;;;;;;;1.53;1.30;;;16.50;99.90;;;;;;5043634;28;20987;-80
2022/10/19 12:44:33;;;;;;;3.63;1.50;;;16.50;99.90;;;;;;5064504;28;20506;-82
2022/10/19 12:47:08;;;;;;;1.60;1.50;;;16.50;99.90;;;;;;5060154;28;20457;-80
2022/10/19 12:49:43;;;;;;;2.07;1.17;;;16.50;99.90;;;;;;5058962;28;20513;-79
2022/10/19 12:52:10;;;;;;;1.33;1.03;;;16.60;99.90;;;;;;5059644;28;20498;-81
2022/10/19 12:54:40;;;;;;;3.17;1.47;;;16.60;99.90;;;;;;5058954;28;20518;-77
2022/10/19 12:57:26;;;;;;;2.23;1.90;;;16.60;99.90;;;;;;5050944;28;20465;-78
2022/10/19 13:00:05;;;;;;;3.47;1.73;;;16.60;99.90;;;;;;5056554;28;20555;-81
2022/10/19 13:02:35;;;;;;;2.17;1.10;;;16.70;99.90;;;;;;5057458;28;20499;-81
2022/10/19 13:05:04;;;;;;;1.63;1.27;;;16.60;99.90;;;;;;5076427;28;20464;-81
2022/10/19 13:07:48;;;;;;;1.60;1.30;;;16.60;99.90;;;;;;5078618;28;20499;-80
2022/10/19 13:10:20;;;;;;;1.93;1.20;;;16.60;99.90;;;;;;5064216;28;20466;-80
2022/10/19 13:12:48;;;;;;;2.83;1.10;;;16.60;99.90;;;;;;5055855;28;20487;-81